Time;durP1;ratioP1;P1;durP2;ratioP2;P2;SDS_P1;SDS_P2;PMS_P1;PMS_P2;Temp;Humidity;BMP_temperature;BMP_pressure;BME280_temperature;BME280_humidity;BME280_pressure;Samples;Min_cycle;Max_cycle;Signal;HPM_P1;HPM_P2
2022/04/09 00:01:30;;;;;;;8.38;4.55;;;;;;;2.71;100.00;98027.09;1688800;83;21502;-73
2022/04/09 00:03:57;;;;;;;10.93;4.90;;;;;;;2.74;100.00;98031.91;1683057;83;20901;-72
2022/04/09 00:06:24;;;;;;;9.80;4.72;;;;;;;2.79;100.00;98020.41;1697125;83;21834;-72
2022/04/09 00:08:50;;;;;;;7.67;4.12;;;;;;;2.82;100.00;98027.14;1688105;83;20951;-71
2022/04/09 00:11:19;;;;;;;11.35;5.20;;;;;;;2.79;100.00;98037.22;1656781;84;21069;-72
2022/04/09 00:13:47;;;;;;;10.48;5.03;;;;;;;2.73;99.98;98038.42;1676691;85;20988;-72
2022/04/09 00:16:14;;;;;;;7.55;4.78;;;;;;;2.65;99.52;98034.51;1712788;83;20899;-72
2022/04/09 00:18:43;;;;;;;10.25;4.72;;;;;;;2.53;99.20;98035.00;1693451;83;21132;-70
2022/04/09 00:21:11;;;;;;;7.33;4.40;;;;;;;2.48;100.00;98033.74;1695315;84;21105;-72
2022/04/09 00:23:39;;;;;;;8.13;4.47;;;;;;;2.58;100.00;98025.42;1708331;83;20967;-71
2022/04/09 00:26:05;;;;;;;8.40;4.28;;;;;;;2.78;100.00;98029.65;1682541;83;21570;-71
2022/04/09 00:28:33;;;;;;;8.13;4.47;;;;;;;2.99;100.00;98033.52;1694855;84;20992;-70
2022/04/09 00:30:59;;;;;;;7.85;3.85;;;;;;;3.25;99.95;98032.44;1703713;83;21106;-71
2022/04/09 00:33:26;;;;;;;8.10;4.00;;;;;;;3.45;98.91;98037.97;1691248;83;20928;-71
2022/04/09 00:35:54;;;;;;;10.43;4.15;;;;;;;3.60;97.98;98031.36;1677479;84;21555;-72
2022/04/09 00:38:25;;;;;;;10.23;4.12;;;;;;;3.75;97.15;98031.00;1679054;83;21526;-74
2022/04/09 00:40:50;;;;;;;10.43;4.33;;;;;;;3.88;96.27;98030.15;1700749;83;20939;-75
2022/04/09 00:43:18;;;;;;;10.65;4.80;;;;;;;4.09;95.46;98018.76;1687048;83;21907;-73
2022/04/09 00:45:49;;;;;;;9.20;4.65;;;;;;;4.09;95.46;98018.76;1687687;83;20947;-71
2022/04/09 00:48:20;;;;;;;10.48;4.58;;;;;;;4.18;94.88;98015.53;1692120;83;20935;-71
2022/04/09 00:50:48;;;;;;;8.20;4.17;;;;;;;4.20;94.43;98008.69;1698282;83;20882;-71
2022/04/09 00:53:16;;;;;;;11.03;4.28;;;;;;;4.21;94.11;98013.00;1684127;83;21482;-71
2022/04/09 00:58:30;;;;;;;10.72;4.45;;;;;;;4.24;94.33;98021.89;1699201;84;21095;-71
2022/04/09 01:00:57;;;;;;;7.85;4.37;;;;;;;4.26;94.26;98022.94;1696894;83;20903;-71
2022/04/09 01:03:24;;;;;;;13.68;4.55;;;;;;;4.25;94.24;98017.26;1688352;83;21020;-71
2022/04/09 01:05:51;;;;;;;8.95;4.55;;;;;;;4.33;93.67;98019.78;1661249;83;21517;-71
2022/04/09 01:08:18;;;;;;;8.98;4.60;;;;;;;4.33;93.67;98019.78;1692842;83;21144;-71
2022/04/09 01:10:50;;;;;;;9.40;4.00;;;;;;;4.35;93.65;98018.91;1676669;85;20949;-71
2022/04/09 01:13:19;;;;;;;15.15;5.08;;;;;;;4.39;93.53;98014.45;1665027;83;20899;-74
2022/04/09 01:15:45;;;;;;;8.33;4.42;;;;;;;4.42;93.43;98015.19;1676884;85;21451;-73
2022/04/09 01:18:12;;;;;;;9.65;4.53;;;;;;;4.43;93.17;98006.73;1698689;83;20947;-71
2022/04/09 01:20:40;;;;;;;12.47;4.70;;;;;;;4.46;92.98;97995.23;1703127;83;21529;-71
2022/04/09 01:23:08;;;;;;;6.53;4.80;;;;;;;4.46;92.98;97995.23;1699147;83;21113;-72
2022/04/09 01:25:34;;;;;;;7.90;4.85;;;;;;;4.47;93.08;97994.67;1703411;82;20937;-72
2022/04/09 01:28:02;;;;;;;7.50;4.50;;;;;;;4.43;93.24;97970.60;1692966;83;21035;-71
2022/04/09 01:30:30;;;;;;;9.63;4.85;;;;;;;4.43;93.50;97970.05;1704404;83;21025;-71
2022/04/09 01:32:57;;;;;;;9.85;5.12;;;;;;;4.43;93.50;97970.05;1696153;83;21118;-71
2022/04/09 01:35:25;;;;;;;10.15;5.22;;;;;;;4.41;93.70;97965.48;1680770;83;21034;-71
2022/04/09 01:37:54;;;;;;;10.53;5.65;;;;;;;4.40;93.71;97963.08;1701486;83;21447;-79
2022/04/09 01:40:23;;;;;;;9.35;5.12;;;;;;;4.37;93.89;97949.56;1681460;83;20944;-76
2022/04/09 01:42:52;;;;;;;9.80;5.00;;;;;;;4.39;93.69;97943.81;1682076;83;20952;-76
2022/04/09 01:45:19;;;;;;;9.10;5.03;;;;;;;4.38;93.68;97934.06;1684001;83;21183;-77
2022/04/09 01:47:46;;;;;;;12.23;5.60;;;;;;;4.39;93.34;97922.88;1687189;83;20895;-74
2022/04/09 01:50:14;;;;;;;13.38;5.50;;;;;;;4.42;93.46;97919.53;1676986;83;20903;-74
2022/04/09 01:52:43;;;;;;;10.23;5.45;;;;;;;4.44;93.48;97920.58;1700715;83;20899;-73
2022/04/09 01:55:09;;;;;;;10.35;5.37;;;;;;;4.42;93.59;97908.67;1675754;83;20951;-73
2022/04/09 01:57:38;;;;;;;10.32;4.95;;;;;;;4.45;93.48;97905.32;1702309;83;21155;-72
2022/04/09 02:00:10;;;;;;;13.08;5.60;;;;;;;4.43;93.66;97889.09;1709769;83;20935;-72
2022/04/09 02:02:44;;;;;;;8.65;5.08;;;;;;;4.43;93.66;97889.09;1681331;83;20967;-72
2022/04/09 02:05:13;;;;;;;10.13;4.83;;;;;;;4.45;93.80;97874.07;1713387;83;20907;-73
2022/04/09 02:07:45;;;;;;;7.17;4.40;;;;;;;4.45;93.80;97874.07;1701657;83;20951;-73
2022/04/09 02:10:11;;;;;;;11.05;4.62;;;;;;;4.45;93.61;97872.71;1681882;83;21471;-72
2022/04/09 02:12:41;;;;;;;10.05;5.22;;;;;;;4.47;93.60;97882.71;1682765;83;20999;-72
2022/04/09 02:15:10;;;;;;;11.45;4.87;;;;;;;4.48;93.47;97880.23;1681162;83;21452;-72
2022/04/09 02:17:41;;;;;;;9.28;4.67;;;;;;;4.49;93.32;97881.03;1696583;83;21030;-74
2022/04/09 02:20:10;;;;;;;11.43;5.35;;;;;;;4.47;93.04;97870.48;1696173;83;21361;-74
2022/04/09 02:22:40;;;;;;;8.85;4.45;;;;;;;4.47;93.04;97870.48;1679062;83;21506;-74
2022/04/09 02:25:11;;;;;;;13.25;5.72;;;;;;;4.46;92.85;97858.57;1687280;82;21030;-75
2022/04/09 02:27:38;;;;;;;7.60;4.60;;;;;;;4.47;92.80;97863.69;1685297;83;21447;-73
2022/04/09 02:30:08;;;;;;;11.85;4.95;;;;;;;4.46;92.76;97849.86;1688564;83;21439;-74
2022/04/09 02:32:46;;;;;;;8.70;4.53;;;;;;;4.49;92.13;97849.78;1689329;83;20928;-74
2022/04/09 02:35:14;;;;;;;8.30;4.50;;;;;;;4.49;92.13;97849.78;1686049;83;22007;-74
2022/04/09 02:37:41;;;;;;;10.00;4.90;;;;;;;4.51;91.60;97847.00;1680193;83;21503;-72
2022/04/09 02:40:09;;;;;;;7.12;4.22;;;;;;;4.54;91.65;97846.36;1693498;83;20936;-72
2022/04/09 02:42:37;;;;;;;9.18;4.90;;;;;;;4.56;91.21;97829.73;1666802;83;21595;-72
2022/04/09 02:45:05;;;;;;;12.60;4.83;;;;;;;4.56;91.21;97829.73;1687253;83;20936;-72
2022/04/09 02:47:33;;;;;;;8.88;5.05;;;;;;;4.58;91.11;97811.20;1683604;83;21509;-73
2022/04/09 02:50:00;;;;;;;8.35;4.80;;;;;;;4.64;91.13;97794.39;1683639;83;21031;-73
2022/04/09 02:52:38;;;;;;;10.78;5.17;;;;;;;4.64;91.13;97794.39;1696513;83;21109;-73
2022/04/09 02:55:07;;;;;;;10.23;5.22;;;;;;;4.71;90.48;97780.31;1691535;83;20947;-73
2022/04/09 02:57:37;;;;;;;8.78;4.92;;;;;;;4.77;90.39;97783.11;1690175;83;20940;-72
2022/04/09 03:00:08;;;;;;;9.93;5.53;;;;;;;4.82;90.37;97791.67;1676612;83;21224;-70
2022/04/09 03:02:36;;;;;;;11.30;5.55;;;;;;;4.83;90.31;97812.30;1682777;83;20967;-71
2022/04/09 03:05:04;;;;;;;10.38;6.05;;;;;;;4.85;89.78;97816.86;1683830;83;20983;-71
2022/04/09 03:07:31;;;;;;;13.85;5.22;;;;;;;4.90;89.87;97824.30;1677189;83;20943;-71
2022/04/09 03:09:58;;;;;;;10.48;5.58;;;;;;;4.93;90.20;97828.30;1677072;85;21495;-71
2022/04/09 03:12:25;;;;;;;9.63;5.35;;;;;;;4.95;89.90;97835.58;1682822;83;21041;-71
2022/04/09 03:14:52;;;;;;;8.55;4.80;;;;;;;4.95;89.90;97835.58;1692847;84;20994;-72
2022/04/09 03:17:19;;;;;;;8.18;4.95;;;;;;;5.04;89.44;97829.58;1705056;83;20987;-71
2022/04/09 03:19:46;;;;;;;11.88;5.95;;;;;;;5.09;89.51;97843.57;1676882;85;20940;-74
2022/04/09 03:22:12;;;;;;;16.37;8.73;;;;;;;5.12;89.59;97831.48;1676777;85;20959;-72
2022/04/09 03:24:42;;;;;;;11.78;6.33;;;;;;;5.15;89.58;97847.17;1694174;83;20980;-72
2022/04/09 03:27:10;;;;;;;12.50;6.78;;;;;;;5.15;89.58;97847.17;1699835;83;20983;-72
2022/04/09 03:29:39;;;;;;;11.12;5.65;;;;;;;5.18;89.50;97856.61;1702770;83;20865;-71
2022/04/09 03:32:07;;;;;;;10.63;5.40;;;;;;;5.25;88.96;97875.94;1704736;83;21078;-73
2022/04/09 03:34:36;;;;;;;6.80;4.35;;;;;;;5.25;88.96;97875.94;1679433;83;20904;-74
2022/04/09 03:37:04;;;;;;;8.45;4.75;;;;;;;5.33;88.58;97897.45;1700773;83;21175;-69
2022/04/09 03:39:31;;;;;;;9.85;4.58;;;;;;;5.42;88.00;97893.61;1699402;83;20895;-70
2022/04/09 03:41:59;;;;;;;6.65;4.10;;;;;;;5.52;87.74;97907.45;1687346;83;21256;-69
2022/04/09 03:44:26;;;;;;;6.78;4.22;;;;;;;5.60;86.98;97909.36;1685603;83;21427;-69
2022/04/09 03:47:01;;;;;;;8.63;4.42;;;;;;;5.67;86.36;97908.88;1690185;83;21007;-69
2022/04/09 03:49:32;;;;;;;10.20;5.58;;;;;;;5.74;85.12;97919.51;1690735;83;21183;-69
2022/04/09 03:51:59;;;;;;;400.72;167.62;;;;;;;5.86;84.43;97917.45;1692509;83;20904;-69
2022/04/09 03:54:27;;;;;;;29.63;13.62;;;;;;;5.94;84.38;97924.27;1689318;83;20884;-74
2022/04/09 03:56:54;;;;;;;7.30;4.05;;;;;;;6.04;84.00;97930.50;1696437;83;21431;-69
2022/04/09 03:59:23;;;;;;;7.15;4.85;;;;;;;6.08;83.68;97926.00;1694457;83;20947;-69
2022/04/09 04:01:52;;;;;;;7.83;5.33;;;;;;;6.13;83.84;97920.37;1730599;81;20979;-69
2022/04/09 04:04:21;;;;;;;9.73;3.58;;;;;;;6.16;84.07;97916.44;1715857;81;20998;-69
2022/04/09 04:06:48;;;;;;;7.60;3.45;;;;;;;6.17;83.61;97912.59;1732520;80;21537;-69
2022/04/09 04:09:17;;;;;;;7.42;3.47;;;;;;;6.23;83.43;97912.64;1715067;80;21475;-70
2022/04/09 04:11:46;;;;;;;7.25;3.65;;;;;;;6.28;82.88;97911.66;1718633;81;21020;-68
2022/04/09 04:14:14;;;;;;;7.17;3.00;;;;;;;6.30;83.03;97912.14;1733185;80;20907;-68
2022/04/09 04:16:41;;;;;;;7.65;3.17;;;;;;;6.31;82.90;97906.92;1739002;81;21002;-69
2022/04/09 04:19:09;;;;;;;6.37;3.42;;;;;;;6.34;82.66;97908.20;1753726;80;21479;-70
2022/04/09 04:21:38;;;;;;;8.33;3.25;;;;;;;6.35;82.47;97903.78;1744955;80;20994;-69
2022/04/09 04:24:07;;;;;;;7.75;3.58;;;;;;;6.39;82.55;97907.98;1708345;81;20969;-68
2022/04/09 04:26:34;;;;;;;4.78;3.10;;;;;;;6.40;82.77;97900.05;1697649;83;21415;-68
2022/04/09 04:29:03;;;;;;;8.35;3.85;;;;;;;6.43;82.72;97904.84;1713471;80;20899;-69
2022/04/09 04:31:31;;;;;;;8.35;3.72;;;;;;;6.44;82.87;97901.78;1721060;81;21035;-69
2022/04/09 04:34:00;;;;;;;9.48;3.40;;;;;;;6.47;82.63;97902.49;1709210;80;21494;-69
2022/04/09 04:36:29;;;;;;;7.80;3.65;;;;;;;6.49;82.50;97901.59;1714857;81;21029;-69
2022/04/09 04:38:57;;;;;;;8.68;3.80;;;;;;;6.51;82.64;97907.52;1672644;82;21189;-70
2022/04/09 04:41:25;;;;;;;7.90;3.72;;;;;;;6.54;83.33;97904.70;1720826;80;21081;-69
2022/04/09 04:43:54;;;;;;;11.53;4.45;;;;;;;6.57;83.09;97904.05;1735073;80;21673;-70
2022/04/09 04:46:23;;;;;;;8.08;4.15;;;;;;;6.59;82.78;97903.95;1695352;83;20994;-71
2022/04/09 04:48:50;;;;;;;6.92;3.70;;;;;;;6.61;82.78;97900.33;1683538;83;20983;-70
2022/04/09 04:51:21;;;;;;;11.35;4.55;;;;;;;6.64;82.74;97889.34;1692524;83;21069;-70
2022/04/09 04:53:48;;;;;;;6.37;4.05;;;;;;;6.69;83.05;97897.89;1688916;83;21029;-71
2022/04/09 04:56:16;;;;;;;6.33;3.47;;;;;;;6.72;83.43;97893.94;1690230;83;20936;-73
2022/04/09 04:58:48;;;;;;;7.45;3.37;;;;;;;6.76;83.19;97889.42;1682179;83;20920;-70
2022/04/09 05:01:17;;;;;;;8.08;4.17;;;;;;;6.80;83.00;97889.00;1683008;83;21486;-69
2022/04/09 05:03:45;;;;;;;8.43;3.75;;;;;;;6.83;82.62;97879.35;1729342;81;21130;-70
2022/04/09 05:06:21;;;;;;;6.83;3.20;;;;;;;6.85;82.60;97877.09;1695793;84;21019;-70
2022/04/09 05:08:48;;;;;;;4.87;2.47;;;;;;;6.91;82.14;97871.67;1730054;81;21123;-70
2022/04/09 05:11:18;;;;;;;7.15;3.55;;;;;;;6.95;82.01;97867.92;1705485;81;21459;-71
2022/04/09 05:13:46;;;;;;;5.83;3.02;;;;;;;7.01;81.31;97867.72;1709335;82;21086;-71
2022/04/09 05:16:15;;;;;;;5.58;2.80;;;;;;;7.07;81.26;97864.47;1711447;83;20836;-71
2022/04/09 05:18:43;;;;;;;4.78;2.55;;;;;;;7.12;81.23;97856.08;1713359;80;21751;-69
2022/04/09 05:21:12;;;;;;;6.62;2.75;;;;;;;7.17;80.88;97855.88;1757367;80;21468;-72
2022/04/09 05:23:39;;;;;;;8.25;2.60;;;;;;;7.25;80.54;97848.17;1728772;80;21006;-71
2022/04/09 05:26:06;;;;;;;6.60;3.20;;;;;;;7.34;80.34;97851.40;1717115;81;21530;-71
2022/04/09 05:28:33;;;;;;;5.83;3.40;;;;;;;7.41;79.85;97846.99;1724688;82;21252;-71
2022/04/09 05:31:00;;;;;;;6.35;3.55;;;;;;;7.51;79.83;97841.08;1732647;82;20995;-73
2022/04/09 05:33:28;;;;;;;9.35;3.80;;;;;;;7.59;79.41;97840.77;1730647;82;21819;-72
2022/04/09 05:35:57;;;;;;;7.62;4.45;;;;;;;7.68;78.89;97836.58;1727946;82;21030;-71
2022/04/09 05:38:25;;;;;;;13.32;4.92;;;;;;;7.74;78.49;97829.20;1736404;82;20996;-73
2022/04/09 05:40:52;;;;;;;9.68;4.95;;;;;;;7.82;78.36;97831.03;1717583;81;21484;-70
2022/04/09 05:43:20;;;;;;;7.72;3.80;;;;;;;7.89;76.60;97823.08;1715022;82;21509;-70
2022/04/09 05:45:49;;;;;;;5.72;3.25;;;;;;;8.00;76.44;97819.33;1726337;82;20864;-72
2022/04/09 05:48:17;;;;;;;6.60;3.60;;;;;;;8.08;76.26;97814.90;1729880;81;20899;-71
2022/04/09 05:50:46;;;;;;;6.78;2.45;;;;;;;8.17;75.13;97810.09;1733890;81;21018;-72
2022/04/09 05:53:15;;;;;;;4.85;2.35;;;;;;;8.26;74.74;97810.20;1730124;82;20924;-72
2022/04/09 05:55:42;;;;;;;7.40;2.62;;;;;;;8.35;74.22;97807.95;1722831;81;20938;-73
2022/04/09 05:58:09;;;;;;;6.25;2.52;;;;;;;8.41;73.30;97801.11;1728490;82;21432;-71
2022/04/09 06:00:37;;;;;;;3.95;2.47;;;;;;;8.48;73.47;97805.44;1732505;82;21049;-72
2022/04/09 06:03:06;;;;;;;4.40;1.87;;;;;;;8.55;71.74;97801.55;1723820;81;20983;-70
2022/04/09 06:05:35;;;;;;;2.62;1.55;;;;;;;8.67;70.43;97795.23;1716985;82;21045;-74
2022/04/09 06:08:04;;;;;;;5.97;2.08;;;;;;;8.77;69.98;97793.39;1715254;82;21498;-73
2022/04/09 06:10:32;;;;;;;6.42;1.98;;;;;;;8.86;68.91;97789.94;1714483;83;20963;-66
2022/04/09 06:12:59;;;;;;;5.25;1.92;;;;;;;8.94;68.23;97793.91;1725185;82;21511;-66
2022/04/09 06:15:28;;;;;;;5.90;2.50;;;;;;;9.03;68.11;97789.66;1731016;82;20916;-66
2022/04/09 06:17:59;;;;;;;7.92;2.55;;;;;;;9.12;67.45;97784.84;1717217;82;21152;-66
2022/04/09 06:20:27;;;;;;;4.17;1.72;;;;;;;9.20;66.62;97785.83;1682241;82;21007;-66
2022/04/09 06:22:54;;;;;;;3.42;1.52;;;;;;;9.26;65.86;97787.94;1729048;82;20974;-66
2022/04/09 06:25:21;;;;;;;5.92;2.00;;;;;;;9.32;66.34;97783.01;1723215;81;20963;-66
2022/04/09 06:27:48;;;;;;;2.95;1.70;;;;;;;9.36;65.87;97785.27;1740148;81;20976;-67
2022/04/09 06:30:15;;;;;;;4.17;1.70;;;;;;;9.42;65.35;97789.92;1724376;82;21132;-66
2022/04/09 06:32:43;;;;;;;5.35;1.77;;;;;;;9.44;64.54;97785.69;1733896;82;21058;-67
2022/04/09 06:35:10;;;;;;;3.55;1.90;;;;;;;9.48;64.20;97783.84;1729797;82;21588;-66
2022/04/09 06:37:38;;;;;;;6.58;1.92;;;;;;;9.50;63.88;97786.23;1729325;82;20964;-67
2022/04/09 06:40:09;;;;;;;6.47;1.67;;;;;;;9.53;63.93;97788.27;1717921;81;21546;-66
2022/04/09 06:42:40;;;;;;;4.72;1.80;;;;;;;9.55;63.57;97790.87;1723352;82;21171;-65
2022/04/09 06:45:10;;;;;;;3.50;1.77;;;;;;;9.58;63.33;97790.75;1718474;82;21013;-67
2022/04/09 06:47:40;;;;;;;7.75;1.82;;;;;;;9.58;64.38;97801.13;1740548;81;21010;-66
2022/04/09 06:50:11;;;;;;;4.83;1.60;;;;;;;9.61;63.82;97805.11;1726034;81;20975;-68
2022/04/09 06:52:39;;;;;;;3.90;1.40;;;;;;;9.63;63.17;97793.23;1739074;82;20920;-68
2022/04/09 06:55:09;;;;;;;3.65;1.70;;;;;;;9.65;63.69;97793.67;1722504;82;21286;-68
2022/04/09 06:57:39;;;;;;;10.88;1.80;;;;;;;9.67;64.09;97783.16;1737784;82;21006;-69
2022/04/09 07:00:11;;;;;;;3.10;1.70;;;;;;;9.69;64.17;97791.82;1668821;83;21077;-71
2022/04/09 07:02:39;;;;;;;3.25;1.40;;;;;;;9.71;64.46;97779.94;1685714;83;20891;-71
2022/04/09 07:05:08;;;;;;;3.65;1.60;;;;;;;9.71;64.43;97780.51;1713607;82;20923;-69
2022/04/09 07:07:35;;;;;;;3.92;1.57;;;;;;;9.70;64.91;97781.09;1725049;82;21387;-69
2022/04/09 07:10:09;;;;;;;6.20;1.87;;;;;;;9.68;65.77;97783.37;1728797;81;20919;-70
2022/04/09 07:12:37;;;;;;;4.28;1.70;;;;;;;9.66;65.19;97787.05;1734850;82;20853;-69
2022/04/09 07:15:06;;;;;;;3.98;1.67;;;;;;;9.63;65.12;97786.95;1720417;82;20967;-69
2022/04/09 07:17:35;;;;;;;3.35;1.70;;;;;;;9.63;65.32;97785.58;1731669;82;20982;-70
2022/04/09 07:20:04;;;;;;;4.60;1.72;;;;;;;9.61;65.12;97784.56;1736836;82;21254;-69
2022/04/09 07:22:33;;;;;;;6.50;1.72;;;;;;;9.62;64.82;97779.31;1716740;82;20931;-69
2022/04/09 07:25:02;;;;;;;2.33;1.70;;;;;;;9.62;65.83;97782.05;1726390;82;21549;-69
2022/04/09 07:27:41;;;;;;;5.47;1.70;;;;;;;9.61;65.95;97776.34;1716375;81;21502;-69
2022/04/09 07:30:12;;;;;;;5.33;2.20;;;;;;;9.62;65.95;97773.83;1717054;81;21018;-69
2022/04/09 07:32:41;;;;;;;7.12;1.90;;;;;;;9.63;66.58;97775.99;1735392;82;21036;-69
2022/04/09 07:35:09;;;;;;;4.60;1.70;;;;;;;9.64;66.58;97774.27;1740627;81;21569;-69
2022/04/09 07:37:45;;;;;;;4.20;1.60;;;;;;;9.64;66.79;97772.11;1719061;82;20994;-69
2022/04/09 07:40:15;;;;;;;4.80;1.80;;;;;;;9.64;67.05;97769.37;1716635;82;21482;-68
2022/04/09 07:42:44;;;;;;;4.25;1.70;;;;;;;9.64;67.39;97761.15;1723740;82;20943;-68
2022/04/09 07:45:12;;;;;;;8.05;2.35;;;;;;;9.66;67.58;97765.70;1726992;82;21058;-68
2022/04/09 07:47:42;;;;;;;3.33;1.45;;;;;;;9.67;68.47;97762.61;1724496;82;20964;-69
2022/04/09 07:50:10;;;;;;;4.58;1.60;;;;;;;9.70;68.03;97766.59;1722894;82;21415;-70
2022/04/09 07:52:40;;;;;;;5.65;2.33;;;;;;;9.73;68.28;97762.56;1710053;83;20895;-70
2022/04/09 07:55:16;;;;;;;4.50;1.60;;;;;;;9.75;68.22;97764.95;1712581;82;21007;-68
2022/04/09 07:57:45;;;;;;;5.65;1.47;;;;;;;9.78;68.08;97759.56;1732443;82;21271;-68
2022/04/09 08:00:14;;;;;;;6.47;1.60;;;;;;;9.80;67.80;97761.38;1714837;83;20966;-68
2022/04/09 08:02:41;;;;;;;4.35;1.65;;;;;;;9.81;67.73;97758.86;1717193;82;21475;-70
2022/04/09 08:05:10;;;;;;;7.67;1.47;;;;;;;9.84;67.24;97757.33;1720852;81;20999;-69
2022/04/09 08:07:39;;;;;;;4.87;1.77;;;;;;;9.87;67.63;97758.78;1720272;82;20924;-64
2022/04/09 08:10:07;;;;;;;8.93;1.30;;;;;;;9.92;67.87;97762.63;1729288;82;21228;-65
2022/04/09 08:12:35;;;;;;;3.95;1.72;;;;;;;9.99;67.72;97766.70;1721222;82;20892;-69
2022/04/09 08:15:05;;;;;;;7.22;2.30;;;;;;;10.06;67.37;97762.18;1714692;81;20991;-68
2022/04/09 08:17:33;;;;;;;9.20;2.05;;;;;;;10.14;67.25;97760.41;1732917;82;21494;-68
2022/04/09 08:20:02;;;;;;;5.28;2.10;;;;;;;10.23;66.07;97761.05;1740212;81;20939;-68
2022/04/09 08:22:31;;;;;;;5.33;1.90;;;;;;;10.30;65.75;97759.84;1712218;81;21316;-68
2022/04/09 08:24:58;;;;;;;3.60;1.80;;;;;;;10.35;66.18;97759.56;1727003;81;21424;-67
2022/04/09 08:27:25;;;;;;;7.15;1.65;;;;;;;10.41;66.71;97753.98;1721978;81;20935;-68
2022/04/09 08:29:51;;;;;;;3.62;1.55;;;;;;;10.50;66.06;97753.22;1718380;81;21066;-67
2022/04/09 08:32:19;;;;;;;3.62;1.45;;;;;;;10.57;65.68;97756.12;1722544;81;21181;-69
2022/04/09 08:34:45;;;;;;;10.95;2.08;;;;;;;10.62;64.69;97758.36;1712562;82;21143;-69
2022/04/09 08:37:12;;;;;;;4.65;1.85;;;;;;;10.64;64.96;97756.05;1736160;82;20956;-69
2022/04/09 08:39:39;;;;;;;4.15;2.45;;;;;;;10.66;64.24;97745.52;1688878;83;20896;-69
2022/04/09 08:42:06;;;;;;;5.40;2.10;;;;;;;10.65;64.09;97750.20;1716924;81;20998;-67
2022/04/09 08:44:34;;;;;;;3.60;1.65;;;;;;;10.63;65.76;97753.89;1717259;81;21012;-70
2022/04/09 08:47:01;;;;;;;5.97;1.72;;;;;;;10.63;65.58;97749.77;1734067;82;21105;-68
2022/04/09 08:49:29;;;;;;;6.30;1.80;;;;;;;10.65;65.94;97752.16;1718731;81;20880;-68
2022/04/09 08:51:56;;;;;;;7.92;1.82;;;;;;;10.70;66.16;97754.05;1730643;82;20892;-71
2022/04/09 08:54:23;;;;;;;3.33;1.57;;;;;;;10.74;66.25;97741.19;1687589;82;20969;-71
2022/04/09 08:56:50;;;;;;;4.78;2.08;;;;;;;10.78;66.69;97742.06;1717248;82;20889;-70
2022/04/09 08:59:17;;;;;;;3.33;1.80;;;;;;;10.83;65.49;97742.34;1715984;81;22070;-71
2022/04/09 09:01:44;;;;;;;3.65;1.72;;;;;;;10.89;66.37;97738.95;1727207;82;20963;-70
2022/04/09 09:04:11;;;;;;;3.85;1.50;;;;;;;10.99;67.21;97732.06;1724780;82;20976;-71
2022/04/09 09:06:45;;;;;;;4.75;1.70;;;;;;;11.15;66.81;97725.11;1718259;82;20928;-71
2022/04/09 09:09:09;;;;;;;7.97;1.87;;;;;;;11.34;66.05;97720.17;1705888;83;20856;-68
2022/04/09 09:11:47;;;;;;;6.20;1.82;;;;;;;11.52;64.84;97708.92;1712279;82;21173;-68
2022/04/09 09:14:34;;;;;;;9.65;1.70;;;;;;;11.67;65.42;97692.06;1715127;81;20939;-68
2022/04/09 09:17:03;;;;;;;4.70;2.22;;;;;;;11.75;64.66;97696.52;1733089;82;21038;-69
2022/04/09 09:19:47;;;;;;;12.73;2.58;;;;;;;11.77;63.56;97713.47;1748940;81;20885;-68
2022/04/09 09:22:15;;;;;;;5.50;2.20;;;;;;;11.73;63.49;97720.26;1729834;82;21045;-70
2022/04/09 09:24:43;;;;;;;5.92;2.70;;;;;;;11.70;63.60;97733.36;1728844;81;20967;-70
2022/04/09 09:27:11;;;;;;;7.85;2.60;;;;;;;11.68;63.78;97726.64;1713489;81;20888;-70
2022/04/09 09:29:42;;;;;;;5.60;2.55;;;;;;;11.66;63.28;97721.51;1724646;81;20991;-70
2022/04/09 09:32:13;;;;;;;5.65;2.52;;;;;;;11.68;63.70;97726.06;1709330;83;21003;-70
2022/04/09 09:35:05;;;;;;;8.58;3.12;;;;;;;11.70;63.82;97722.36;1720706;81;21004;-68
2022/04/09 09:37:45;;;;;;;6.70;2.70;;;;;;;11.75;64.02;97723.43;1725093;81;21138;-71
2022/04/09 09:40:41;;;;;;;5.50;2.10;;;;;;;11.80;63.25;97719.03;1726650;82;20971;-71
2022/04/09 09:43:22;;;;;;;5.35;2.65;;;;;;;11.86;63.14;97714.02;1681327;82;21483;-69
2022/04/09 09:45:54;;;;;;;8.85;2.47;;;;;;;11.89;62.97;97714.08;1681586;83;20967;-67
2022/04/09 09:48:35;;;;;;;8.23;2.63;;;;;;;11.93;63.04;97719.63;1707704;81;21062;-67
2022/04/09 09:51:10;;;;;;;4.80;2.37;;;;;;;11.96;62.75;97707.10;1686593;80;21154;-68
2022/04/09 09:53:49;;;;;;;6.03;2.42;;;;;;;11.98;63.16;97702.03;1744466;80;20999;-68
2022/04/09 09:56:44;;;;;;;4.85;2.90;;;;;;;12.03;63.00;97698.38;1727337;80;20909;-69
2022/04/09 09:59:26;;;;;;;6.20;2.30;;;;;;;12.09;62.27;97695.53;1691430;82;20895;-68
2022/04/09 10:01:56;;;;;;;6.87;2.22;;;;;;;12.15;62.33;97695.39;1598180;85;21011;-68
2022/04/09 10:04:26;;;;;;;9.30;2.65;;;;;;;12.22;62.13;97687.25;1654833;84;20968;-68
2022/04/09 10:06:52;;;;;;;9.33;2.67;;;;;;;12.37;62.16;97677.23;1666493;83;21031;-68
2022/04/09 10:09:21;;;;;;;8.35;2.22;;;;;;;12.63;62.71;97668.72;1659074;84;21013;-68
2022/04/09 10:11:54;;;;;;;7.80;2.62;;;;;;;13.11;62.27;97654.50;1656314;85;21003;-68
2022/04/09 10:14:23;;;;;;;6.95;2.25;;;;;;;13.67;59.91;97648.72;1668937;85;21004;-69
2022/04/09 10:16:52;;;;;;;12.05;2.40;;;;;;;14.12;57.61;97643.31;1676637;84;22611;-68
2022/04/09 10:19:23;;;;;;;7.28;3.12;;;;;;;14.37;58.25;97640.69;1714407;81;20976;-67
2022/04/09 10:21:52;;;;;;;4.65;2.60;;;;;;;14.63;56.12;97634.11;1732485;81;21533;-69
2022/04/09 10:24:22;;;;;;;4.90;2.22;;;;;;;14.74;54.83;97634.16;1734857;79;21168;-69
2022/04/09 10:26:49;;;;;;;11.12;2.67;;;;;;;14.82;55.21;97631.62;1730104;81;21357;-68
2022/04/09 10:29:16;;;;;;;7.47;2.60;;;;;;;14.84;55.67;97627.28;1748049;80;21160;-69
2022/04/09 10:31:43;;;;;;;7.55;2.30;;;;;;;14.77;56.26;97625.09;1757837;80;20879;-70
2022/04/09 10:34:16;;;;;;;10.05;2.85;;;;;;;14.70;56.17;97636.11;1726181;81;21021;-69
2022/04/09 10:36:51;;;;;;;5.85;2.60;;;;;;;14.56;56.13;97640.19;1767458;81;21049;-69
2022/04/09 10:39:22;;;;;;;5.35;2.65;;;;;;;14.40;57.37;97624.73;1764428;80;21497;-74
2022/04/09 10:41:49;;;;;;;10.55;2.55;;;;;;;14.30;57.37;97632.38;1769313;80;21125;-70
2022/04/09 10:44:39;;;;;;;9.18;2.50;;;;;;;14.21;57.86;97625.82;1763237;80;20934;-68
2022/04/09 10:47:07;;;;;;;7.33;2.98;;;;;;;14.14;58.48;97627.75;1717512;80;20947;-70
2022/04/09 10:49:34;;;;;;;7.08;2.33;;;;;;;14.06;58.43;97622.77;1696812;82;21534;-69
2022/04/09 10:52:11;;;;;;;7.60;2.83;;;;;;;14.06;58.88;97621.39;1708557;81;20992;-68
2022/04/09 10:54:39;;;;;;;7.55;3.15;;;;;;;14.11;59.31;97622.41;1682800;83;21463;-70
2022/04/09 10:57:10;;;;;;;5.22;2.87;;;;;;;14.19;59.32;97619.89;1696452;83;20895;-70
2022/04/09 10:59:38;;;;;;;10.35;3.47;;;;;;;14.27;59.63;97627.62;1714412;83;20879;-70
2022/04/09 11:02:04;;;;;;;9.80;4.37;;;;;;;14.34;59.91;97637.33;1676836;85;21495;-70
2022/04/09 11:04:35;;;;;;;24.23;11.83;;;;;;;14.39;59.97;97652.14;1678845;83;20939;-70
2022/04/09 11:07:12;;;;;;;8.78;3.98;;;;;;;14.43;60.01;97657.71;1688079;83;21595;-70
2022/04/09 11:09:57;;;;;;;14.43;6.17;;;;;;;14.49;59.96;97658.89;1695841;83;20960;-69
2022/04/09 11:12:33;;;;;;;22.42;11.20;;;;;;;14.51;60.05;97666.99;1691062;83;20912;-69
2022/04/09 11:15:15;;;;;;;20.90;11.57;;;;;;;14.58;60.37;97672.34;1683685;83;21444;-70
2022/04/09 11:17:49;;;;;;;12.80;5.08;;;;;;;14.63;60.37;97667.25;1691780;83;20987;-69
2022/04/09 11:20:19;;;;;;;15.35;6.90;;;;;;;14.71;59.64;97665.31;1687902;83;21211;-70
2022/04/09 11:22:52;;;;;;;11.85;3.92;;;;;;;14.82;59.69;97670.29;1681968;83;20940;-69
2022/04/09 11:25:26;;;;;;;11.90;5.70;;;;;;;14.95;59.34;97671.52;1679988;83;20948;-70
2022/04/09 11:28:13;;;;;;;12.23;4.10;;;;;;;15.15;59.25;97651.22;1703907;83;21007;-70
2022/04/09 11:30:55;;;;;;;11.50;4.12;;;;;;;15.40;58.38;97649.30;1688522;83;21558;-69
2022/04/09 11:33:22;;;;;;;;;;;;;;;15.68;57.39;97647.14;1685967;83;21260;-68
2022/04/09 11:35:54;;;;;;;10.75;4.37;;;;;;;15.95;57.67;97643.97;1708450;83;20164;-69
2022/04/09 11:38:28;;;;;;;8.68;4.10;;;;;;;16.24;57.00;97632.23;1677832;83;28256;-69
2022/04/09 11:41:02;;;;;;;10.72;4.50;;;;;;;16.60;56.71;97622.63;1696008;84;20990;-69
2022/04/09 11:43:34;;;;;;;12.98;4.20;;;;;;;16.87;56.67;97625.67;1701296;83;21007;-69
2022/04/09 11:46:09;;;;;;;7.80;4.33;;;;;;;17.10;55.29;97626.55;1678376;83;22238;-69
2022/04/09 11:48:35;;;;;;;11.60;4.60;;;;;;;17.22;55.14;97619.73;1684732;83;20892;-69
2022/04/09 11:51:04;;;;;;;10.55;4.85;;;;;;;17.23;54.63;97621.31;1684377;85;20994;-70